Time;durP1;ratioP1;P1;durP2;ratioP2;P2;SDS_P1;SDS_P2;PMS_P1;PMS_P2;Temp;Humidity;BMP_temperature;BMP_pressure;BME280_temperature;BME280_humidity;BME280_pressure;Samples;Min_cycle;Max_cycle;Signal;HPM_P1;HPM_P2
2021/11/10 00:00:07;;;;;;;1.65;0.15;;;;;;;;;;5052962;28;20053;-66
2021/11/10 00:02:32;;;;;;;1.23;0.20;;;;;;;;;;5056177;28;20041;-66
2021/11/10 00:04:57;;;;;;;0.75;0.20;;;;;;;;;;5055876;28;20024;-66
2021/11/10 00:07:23;;;;;;;0.83;0.17;;;;;;;;;;5056006;28;20044;-67
2021/11/10 00:09:48;;;;;;;0.70;0.10;;;;;;;;;;5055921;28;20301;-66
2021/11/10 00:12:13;;;;;;;0.40;0.20;;;;;;;;;;5056085;28;20021;-67
2021/11/10 00:14:39;;;;;;;0.82;0.10;;;;;;;;;;5055746;28;20032;-67
2021/11/10 00:17:04;;;;;;;2.30;0.40;;;;;;;;;;5055962;28;20049;-66
2021/11/10 00:19:29;;;;;;;1.02;0.10;;;;;;;;;;5055980;28;20447;-66
2021/11/10 00:21:55;;;;;;;1.50;0.27;;;;;;;;;;5055466;28;20111;-67
2021/11/10 00:24:20;;;;;;;0.60;0.20;;;;;;;;;;5055649;28;20305;-67
2021/11/10 00:26:45;;;;;;;0.73;0.10;;;;;;;;;;5055953;28;20029;-67
2021/11/10 00:29:10;;;;;;;0.80;0.20;;;;;;;;;;5055446;28;20254;-68
2021/11/10 00:31:35;;;;;;;0.30;0.10;;;;;;;;;;5055829;28;20024;-67
2021/11/10 00:34:01;;;;;;;2.43;0.43;;;;;;;;;;5055601;28;20021;-65
2021/11/10 00:36:26;;;;;;;1.33;0.17;;;;;;;;;;5055611;28;20345;-66
2021/11/10 00:38:51;;;;;;;0.13;0.10;;;;;;;;;;5055389;28;20115;-67
2021/11/10 00:41:16;;;;;;;0.53;0.10;;;;;;;;;;5055226;28;20601;-67
2021/11/10 00:43:42;;;;;;;0.20;0.20;;;;;;;;;;5055510;28;20258;-67
2021/11/10 00:46:07;;;;;;;2.15;0.30;;;;;;;;;;5055378;28;20021;-67
2021/11/10 00:48:32;;;;;;;0.50;0.10;;;;;;;;;;5055372;28;20109;-67
2021/11/10 00:50:58;;;;;;;0.75;0.13;;;;;;;;;;5054861;28;20124;-66
2021/11/10 00:53:23;;;;;;;0.63;0.10;;;;;;;;;;5055354;28;20017;-67
2021/11/10 00:55:48;;;;;;;1.10;0.17;;;;;;;;;;5055120;28;20025;-66
2021/11/10 00:58:14;;;;;;;1.33;0.20;;;;;;;;;;5054957;28;20021;-67
2021/11/10 01:00:39;;;;;;;1.35;0.10;;;;;;;;;;5055158;28;20728;-68
2021/11/10 01:03:04;;;;;;;2.53;0.20;;;;;;;;;;5054701;28;20059;-67
2021/11/10 01:05:31;;;;;;;0.75;0.10;;;;;;;;;;5054843;28;20384;-67
2021/11/10 01:07:56;;;;;;;0.10;0.10;;;;;;;;;;5054540;28;20021;-67
2021/11/10 01:10:21;;;;;;;1.13;0.20;;;;;;;;;;5055095;28;20371;-67
2021/11/10 01:12:49;;;;;;;1.83;0.20;;;;;;;;;;5054723;28;20055;-68
2021/11/10 01:15:15;;;;;;;1.55;0.30;;;;;;;;;;5055056;28;20100;-67
2021/11/10 01:17:41;;;;;;;0.65;0.13;;;;;;;;;;5054564;28;20040;-65
2021/11/10 01:20:07;;;;;;;0.98;0.22;;;;;;;;;;5054847;28;20025;-67
2021/11/10 01:22:32;;;;;;;0.28;0.20;;;;;;;;;;5054803;28;20029;-67
2021/11/10 01:24:58;;;;;;;0.50;0.10;;;;;;;;;;5054637;28;20020;-67
2021/11/10 01:27:23;;;;;;;0.93;0.10;;;;;;;;;;5054298;28;20104;-67
2021/11/10 01:29:48;;;;;;;2.00;0.25;;;;;;;;;;5054439;28;20032;-67
2021/11/10 01:32:13;;;;;;;1.25;0.20;;;;;;;;;;5054678;28;20470;-67
2021/11/10 01:34:38;;;;;;;0.43;0.10;;;;;;;;;;5054541;28;20020;-67
2021/11/10 01:37:04;;;;;;;0.80;0.17;;;;;;;;;;5054478;28;20491;-67
2021/11/10 01:39:29;;;;;;;1.08;0.20;;;;;;;;;;5054350;28;20029;-67
2021/11/10 01:42:01;;;;;;;1.33;0.10;;;;;;;;;;5054281;28;20032;-66
2021/11/10 01:44:27;;;;;;;0.22;0.20;;;;;;;;;;5054249;28;20025;-66
2021/11/10 01:46:54;;;;;;;0.82;0.10;;;;;;;;;;5054075;28;20375;-67
2021/11/10 01:49:20;;;;;;;0.38;0.05;;;;;;;;;;5054302;28;20028;-67
2021/11/10 01:51:46;;;;;;;0.10;0.00;;;;;;;;;;5054142;28;20013;-67
2021/11/10 01:54:12;;;;;;;0.30;0.10;;;;;;;;;;5036352;28;20399;-67
2021/11/10 01:56:38;;;;;;;0.65;0.30;;;;;;;;;;5053878;28;20029;-67
2021/11/10 01:59:04;;;;;;;0.30;0.08;;;;;;;;;;5054048;28;20021;-67
2021/11/10 02:01:29;;;;;;;1.17;0.20;;;;;;;;;;5054098;22;20049;-67
2021/11/10 02:03:55;;;;;;;0.47;0.10;;;;;;;;;;5033783;28;20472;-66
2021/11/10 02:06:20;;;;;;;0.40;0.10;;;;;;;;;;5033817;28;20021;-67
2021/11/10 02:08:45;;;;;;;1.77;0.30;;;;;;;;;;5033889;28;20120;-67
2021/11/10 02:11:12;;;;;;;0.80;0.32;;;;;;;;;;5032846;28;20281;-66
2021/11/10 02:13:39;;;;;;;0.10;0.00;;;;;;;;;;5033578;28;20017;-67
2021/11/10 02:16:04;;;;;;;1.13;0.15;;;;;;;;;;5033791;28;20064;-67
2021/11/10 02:18:30;;;;;;;0.98;0.00;;;;;;;;;;5033811;28;20053;-66
2021/11/10 02:20:55;;;;;;;1.20;0.20;;;;;;;;;;5033560;28;20444;-67
2021/11/10 02:23:20;;;;;;;1.55;0.30;;;;;;;;;;5032969;28;20511;-68
2021/11/10 02:25:46;;;;;;;1.92;0.20;;;;;;;;;;5033667;28;20180;-67
2021/11/10 02:28:11;;;;;;;1.27;0.30;;;;;;;;;;5033546;28;20017;-67
2021/11/10 02:30:37;;;;;;;1.35;0.10;;;;;;;;;;5033408;28;20445;-67
2021/11/10 02:33:04;;;;;;;1.52;0.30;;;;;;;;;;5033598;28;20424;-67
2021/11/10 02:35:30;;;;;;;0.25;0.10;;;;;;;;;;5033625;28;20403;-66
2021/11/10 02:37:57;;;;;;;1.08;0.20;;;;;;;;;;5035723;28;20108;-66
2021/11/10 02:40:23;;;;;;;0.38;0.08;;;;;;;;;;5053514;28;20020;-66
2021/11/10 02:42:49;;;;;;;0.98;0.15;;;;;;;;;;5052952;28;20025;-67
2021/11/10 02:45:15;;;;;;;1.20;0.32;;;;;;;;;;5053219;28;20020;-67
2021/11/10 02:47:41;;;;;;;0.30;0.10;;;;;;;;;;5053039;28;20021;-68
2021/11/10 02:50:06;;;;;;;0.73;0.00;;;;;;;;;;5052994;28;20489;-67
2021/11/10 02:52:31;;;;;;;0.50;0.10;;;;;;;;;;5053142;28;20474;-67
2021/11/10 02:54:56;;;;;;;1.65;0.10;;;;;;;;;;5053085;28;20021;-66
2021/11/10 02:57:24;;;;;;;0.40;0.20;;;;;;;;;;5053233;28;20028;-66
2021/11/10 02:59:50;;;;;;;0.82;0.52;;;;;;;;;;5052841;28;20467;-67
2021/11/10 03:02:22;;;;;;;2.30;0.40;;;;;;;;;;5052917;28;20045;-68
2021/11/10 03:04:47;;;;;;;0.93;0.30;;;;;;;;;;5052726;28;20064;-67
2021/11/10 03:07:14;;;;;;;0.63;0.00;;;;;;;;;;5053171;28;20071;-68
2021/11/10 03:09:40;;;;;;;0.80;0.60;;;;;;;;;;5051735;28;20700;-68
2021/11/10 03:12:07;;;;;;;0.85;0.10;;;;;;;;;;5052897;28;20024;-66
2021/11/10 03:14:33;;;;;;;1.13;0.10;;;;;;;;;;5053002;28;20440;-67
2021/11/10 03:16:58;;;;;;;0.55;0.10;;;;;;;;;;5052499;28;20074;-67
2021/11/10 03:19:25;;;;;;;0.68;0.10;;;;;;;;;;5053096;28;20021;-67
2021/11/10 03:21:50;;;;;;;1.60;0.32;;;;;;;;;;5052727;28;20095;-68
2021/11/10 03:24:15;;;;;;;0.85;0.30;;;;;;;;;;5052825;28;20109;-68
2021/11/10 03:26:41;;;;;;;0.75;0.00;;;;;;;;;;5052433;28;20067;-66
2021/11/10 03:29:07;;;;;;;0.70;0.10;;;;;;;;;;5052479;28;20040;-66
2021/11/10 03:31:34;;;;;;;0.70;0.13;;;;;;;;;;5052657;28;20056;-67
2021/11/10 03:33:59;;;;;;;0.90;0.25;;;;;;;;;;5052633;28;20018;-66
2021/11/10 03:36:25;;;;;;;2.30;0.20;;;;;;;;;;5055732;28;20067;-67
2021/11/10 03:38:50;;;;;;;0.50;0.13;;;;;;;;;;5046305;28;20018;-68
2021/11/10 03:41:15;;;;;;;1.40;0.20;;;;;;;;;;5036801;28;20372;-67
2021/11/10 03:43:41;;;;;;;1.65;0.10;;;;;;;;;;5036701;28;20025;-68
2021/11/10 03:46:06;;;;;;;0.52;0.10;;;;;;;;;;5036621;28;20021;-67
2021/11/10 03:48:33;;;;;;;0.38;0.20;;;;;;;;;;5035076;28;20522;-66
2021/11/10 03:50:58;;;;;;;0.98;0.10;;;;;;;;;;5036422;28;20053;-67
2021/11/10 03:53:23;;;;;;;0.28;0.10;;;;;;;;;;5036475;28;20468;-67
2021/11/10 03:55:49;;;;;;;2.83;0.30;;;;;;;;;;5036357;28;20024;-68
2021/11/10 03:58:14;;;;;;;0.98;0.30;;;;;;;;;;5036362;28;20021;-67
2021/11/10 04:00:39;;;;;;;0.85;0.13;;;;;;;;;;5036109;28;20025;-67
2021/11/10 04:03:04;;;;;;;0.27;0.20;;;;;;;;;;5036297;28;20675;-67
2021/11/10 04:05:30;;;;;;;0.05;0.00;;;;;;;;;;5036274;28;20282;-66
2021/11/10 04:07:55;;;;;;;0.30;0.00;;;;;;;;;;5035850;28;20025;-67
2021/11/10 04:10:21;;;;;;;0.05;0.00;;;;;;;;;;5036288;28;20036;-68
2021/11/10 04:12:46;;;;;;;0.98;0.30;;;;;;;;;;5036078;28;20096;-68
2021/11/10 04:15:11;;;;;;;0.93;0.17;;;;;;;;;;5036051;28;20021;-68
2021/11/10 04:17:36;;;;;;;1.17;0.10;;;;;;;;;;5036237;28;20804;-68
2021/11/10 04:20:03;;;;;;;1.73;0.20;;;;;;;;;;5036031;28;20025;-67
2021/11/10 04:22:28;;;;;;;0.52;0.10;;;;;;;;;;5036009;28;20259;-67
2021/11/10 04:24:54;;;;;;;1.52;0.47;;;;;;;;;;5035432;28;20025;-68
2021/11/10 04:27:19;;;;;;;0.40;0.10;;;;;;;;;;5035859;28;20100;-67
2021/11/10 04:29:45;;;;;;;0.57;0.10;;;;;;;;;;5035689;28;20601;-68
2021/11/10 04:32:10;;;;;;;1.00;0.40;;;;;;;;;;5034297;28;20018;-68
2021/11/10 04:34:36;;;;;;;0.28;0.20;;;;;;;;;;5035865;28;20380;-67
2021/11/10 04:37:01;;;;;;;1.58;0.17;;;;;;;;;;5035537;28;20049;-67
2021/11/10 04:39:26;;;;;;;0.20;0.00;;;;;;;;;;5049482;28;20021;-68
2021/11/10 04:41:51;;;;;;;0.88;0.08;;;;;;;;;;5054215;28;20074;-68
2021/11/10 04:44:17;;;;;;;2.15;0.20;;;;;;;;;;5055850;28;20025;-68
2021/11/10 04:46:42;;;;;;;0.80;0.43;;;;;;;;;;5054895;28;20020;-68
2021/11/10 04:49:07;;;;;;;0.85;0.10;;;;;;;;;;5055158;28;20088;-68
2021/11/10 04:51:33;;;;;;;0.82;0.20;;;;;;;;;;5055156;28;20506;-66
2021/11/10 04:54:04;;;;;;;1.05;0.30;;;;;;;;;;5055292;28;20425;-67
2021/11/10 04:56:29;;;;;;;1.25;0.30;;;;;;;;;;5055050;28;20043;-68
2021/11/10 04:58:54;;;;;;;0.20;0.10;;;;;;;;;;5055208;28;20025;-67
2021/11/10 05:01:26;;;;;;;1.35;0.30;;;;;;;;;;5055017;28;20737;-68
2021/11/10 05:03:52;;;;;;;0.88;0.10;;;;;;;;;;5055063;28;20017;-67
2021/11/10 05:06:18;;;;;;;1.00;0.25;;;;;;;;;;5054808;28;20507;-66
2021/11/10 05:08:43;;;;;;;1.10;0.20;;;;;;;;;;5053881;28;20029;-67
2021/11/10 05:11:08;;;;;;;0.50;0.10;;;;;;;;;;5054752;28;20056;-67
2021/11/10 05:13:33;;;;;;;1.23;0.20;;;;;;;;;;5054929;28;20059;-67
2021/11/10 05:15:59;;;;;;;1.15;0.40;;;;;;;;;;5054700;28;20101;-68
2021/11/10 05:18:24;;;;;;;1.48;0.40;;;;;;;;;;5054917;28;20059;-67
2021/11/10 05:20:49;;;;;;;0.47;0.10;;;;;;;;;;5054536;28;20424;-66
2021/11/10 05:23:15;;;;;;;0.77;0.25;;;;;;;;;;5054811;28;20261;-68
2021/11/10 05:25:41;;;;;;;0.47;0.00;;;;;;;;;;5054643;28;20028;-67
2021/11/10 05:28:07;;;;;;;0.70;0.10;;;;;;;;;;5054609;28;20366;-66
2021/11/10 05:30:32;;;;;;;0.70;0.30;;;;;;;;;;5054753;28;20013;-67
2021/11/10 05:32:58;;;;;;;0.55;0.20;;;;;;;;;;5054053;28;20025;-66
2021/11/10 05:35:23;;;;;;;1.77;0.32;;;;;;;;;;5054640;28;20028;-66
2021/11/10 05:37:48;;;;;;;1.17;0.30;;;;;;;;;;5052682;28;20033;-67
2021/11/10 05:40:14;;;;;;;0.40;0.20;;;;;;;;;;5034570;28;20261;-67
2021/11/10 05:42:39;;;;;;;1.40;0.10;;;;;;;;;;5034330;28;20017;-66
2021/11/10 05:45:06;;;;;;;1.60;0.45;;;;;;;;;;5034121;28;20029;-66
2021/11/10 05:47:31;;;;;;;1.95;0.40;;;;;;;;;;5034247;28;20053;-67
2021/11/10 05:49:56;;;;;;;0.90;0.30;;;;;;;;;;5034183;28;20087;-66
2021/11/10 05:52:22;;;;;;;1.05;0.15;;;;;;;;;;5034332;28;20452;-67
2021/11/10 05:54:48;;;;;;;1.92;0.32;;;;;;;;;;5034163;28;20028;-66
2021/11/10 05:57:14;;;;;;;0.82;0.13;;;;;;;;;;5033561;28;20025;-65
2021/11/10 05:59:40;;;;;;;0.30;0.10;;;;;;;;;;5033534;28;20025;-67
2021/11/10 06:02:05;;;;;;;2.15;0.20;;;;;;;;;;5033981;28;20136;-67
2021/11/10 06:04:31;;;;;;;1.88;0.63;;;;;;;;;;5034076;28;20113;-66
2021/11/10 06:06:57;;;;;;;1.17;0.22;;;;;;;;;;5033383;28;20025;-66
2021/11/10 06:09:22;;;;;;;0.68;0.20;;;;;;;;;;5034030;28;20483;-67
2021/11/10 06:11:47;;;;;;;0.40;0.00;;;;;;;;;;5033749;28;20092;-66
2021/11/10 06:14:12;;;;;;;2.00;0.20;;;;;;;;;;5033815;28;20376;-66
2021/11/10 06:16:38;;;;;;;1.20;0.10;;;;;;;;;;5033796;28;20018;-67
2021/11/10 06:19:03;;;;;;;1.92;0.30;;;;;;;;;;5033281;28;20033;-65
2021/11/10 06:21:29;;;;;;;0.70;0.10;;;;;;;;;;5033487;28;20037;-67
2021/11/10 06:23:54;;;;;;;1.25;0.20;;;;;;;;;;5033631;28;20057;-68
2021/11/10 06:26:20;;;;;;;0.88;0.20;;;;;;;;;;5033649;28;20033;-66
2021/11/10 06:28:46;;;;;;;1.08;0.28;;;;;;;;;;5033359;28;20448;-67
2021/11/10 06:31:11;;;;;;;0.82;0.10;;;;;;;;;;5033423;28;20492;-66
2021/11/10 06:33:36;;;;;;;0.25;0.15;;;;;;;;;;5033613;28;20036;-66
2021/11/10 06:36:02;;;;;;;1.25;0.10;;;;;;;;;;5033380;28;20014;-66
2021/11/10 06:38:27;;;;;;;3.47;0.60;;;;;;;;;;5040376;28;20017;-67
2021/11/10 06:40:52;;;;;;;0.75;0.20;;;;;;;;;;5052910;28;20100;-66
2021/11/10 06:43:17;;;;;;;1.05;0.20;;;;;;;;;;5053414;28;20024;-65
2021/11/10 06:45:43;;;;;;;0.68;0.20;;;;;;;;;;5053208;28;20032;-66
2021/11/10 06:48:08;;;;;;;1.02;0.30;;;;;;;;;;5053249;28;20115;-66
2021/11/10 06:50:33;;;;;;;1.60;0.10;;;;;;;;;;5053362;28;20055;-67
2021/11/10 06:52:58;;;;;;;3.22;0.30;;;;;;;;;;5052816;28;20728;-67
2021/11/10 06:55:24;;;;;;;1.83;0.20;;;;;;;;;;5053178;28;20523;-67
2021/11/10 06:57:49;;;;;;;1.43;0.33;;;;;;;;;;5052988;28;20503;-65
2021/11/10 07:00:15;;;;;;;1.45;0.10;;;;;;;;;;5053010;28;20349;-67
2021/11/10 07:02:41;;;;;;;1.92;0.20;;;;;;;;;;5040249;28;20041;-67
2021/11/10 07:05:06;;;;;;;1.67;0.20;;;;;;;;;;5043802;28;20031;-67
2021/11/10 07:07:32;;;;;;;0.43;0.20;;;;;;;;;;5037582;28;20465;-67
2021/11/10 07:09:57;;;;;;;1.20;0.13;;;;;;;;;;5037118;28;20367;-65
2021/11/10 07:12:22;;;;;;;0.73;0.13;;;;;;;;;;5039405;28;20067;-66
2021/11/10 07:14:47;;;;;;;0.63;0.20;;;;;;;;;;5039651;28;20040;-67
2021/11/10 07:17:13;;;;;;;2.05;0.30;;;;;;;;;;5039650;28;20349;-67
2021/11/10 07:19:38;;;;;;;1.42;0.32;;;;;;;;;;5047239;28;20024;-66
2021/11/10 07:22:04;;;;;;;0.30;0.10;;;;;;;;;;5045161;28;20028;-66
2021/11/10 07:24:30;;;;;;;1.70;0.20;;;;;;;;;;5054604;28;20418;-66
2021/11/10 07:26:55;;;;;;;0.45;0.15;;;;;;;;;;5058779;28;20032;-67
2021/11/10 07:29:22;;;;;;;1.23;0.35;;;;;;;;;;5059469;28;20029;-67
2021/11/10 07:31:47;;;;;;;0.65;0.25;;;;;;;;;;5046652;28;20018;-67
2021/11/10 07:34:12;;;;;;;1.17;0.20;;;;;;;;;;5039322;28;20025;-66
2021/11/10 07:36:38;;;;;;;0.52;0.10;;;;;;;;;;5040975;28;20026;-67
2021/11/10 07:39:03;;;;;;;1.83;0.20;;;;;;;;;;5040875;28;20088;-67
2021/11/10 07:41:31;;;;;;;1.58;0.40;;;;;;;;;;5040566;28;20510;-67
2021/11/10 07:43:57;;;;;;;0.82;0.13;;;;;;;;;;5041654;28;20372;-67
2021/11/10 07:46:25;;;;;;;1.10;0.13;;;;;;;;;;5050095;28;20021;-67
2021/11/10 07:48:51;;;;;;;0.93;0.13;;;;;;;;;;5046070;28;20447;-65
2021/11/10 07:51:17;;;;;;;1.88;0.30;;;;;;;;;;5045145;28;20049;-68
2021/11/10 07:53:42;;;;;;;0.88;0.10;;;;;;;;;;5039002;28;20010;-67
2021/11/10 07:56:07;;;;;;;2.25;0.40;;;;;;;;;;5044443;28;20021;-66
2021/11/10 07:58:34;;;;;;;1.02;0.10;;;;;;;;;;5059393;28;20071;-67
2021/11/10 08:01:00;;;;;;;0.65;0.10;;;;;;;;;;5054745;28;20060;-66
2021/11/10 08:03:25;;;;;;;1.17;0.17;;;;;;;;;;5038955;28;20376;-66
2021/11/10 08:05:50;;;;;;;0.63;0.10;;;;;;;;;;5039003;28;20049;-67
2021/11/10 08:08:16;;;;;;;2.40;0.50;;;;;;;;;;5055674;28;20040;-67
2021/11/10 08:10:43;;;;;;;0.68;0.20;;;;;;;;;;5058913;28;20058;-66
2021/11/10 08:13:08;;;;;;;1.48;0.40;;;;;;;;;;5047113;28;20025;-67
2021/11/10 08:15:35;;;;;;;1.45;0.30;;;;;;;;;;5054709;28;20013;-67
2021/11/10 08:18:01;;;;;;;1.15;0.20;;;;;;;;;;5058868;28;20032;-67
2021/11/10 08:20:26;;;;;;;1.45;0.10;;;;;;;;;;5057890;28;20021;-67
2021/11/10 08:22:51;;;;;;;1.98;0.52;;;;;;;;;;5055758;28;20512;-67
2021/11/10 08:25:17;;;;;;;1.60;0.20;;;;;;;;;;5055714;28;20020;-66
2021/11/10 08:27:43;;;;;;;1.17;0.10;;;;;;;;;;5055717;28;20043;-66
2021/11/10 08:30:12;;;;;;;0.50;0.10;;;;;;;;;;5053301;28;20020;-67
2021/11/10 08:32:38;;;;;;;0.93;0.10;;;;;;;;;;5045779;28;20116;-66
2021/11/10 08:35:03;;;;;;;0.63;0.30;;;;;;;;;;5035839;28;20116;-66
2021/11/10 08:37:29;;;;;;;1.60;0.15;;;;;;;;;;5035623;28;20463;-66
2021/11/10 08:39:55;;;;;;;1.02;0.20;;;;;;;;;;5043917;28;20025;-66
2021/11/10 08:42:20;;;;;;;0.90;0.10;;;;;;;;;;5053636;28;20025;-66
2021/11/10 08:44:47;;;;;;;1.65;0.35;;;;;;;;;;5036636;28;20017;-67
2021/11/10 08:47:12;;;;;;;0.22;0.17;;;;;;;;;;5035233;28;20055;-67
2021/11/10 08:49:37;;;;;;;0.63;0.00;;;;;;;;;;5035465;28;20101;-66
2021/11/10 08:52:03;;;;;;;3.15;0.10;;;;;;;;;;5035581;28;20636;-67
2021/11/10 08:54:29;;;;;;;1.45;0.20;;;;;;;;;;5035270;28;20440;-66
2021/11/10 08:56:55;;;;;;;0.73;0.13;;;;;;;;;;5037273;28;20032;-66
2021/11/10 08:59:21;;;;;;;2.15;0.20;;;;;;;;;;5046315;28;20028;-67
2021/11/10 09:01:48;;;;;;;0.45;0.05;;;;;;;;;;5035023;28;20037;-66
2021/11/10 09:04:15;;;;;;;1.35;0.30;;;;;;;;;;5035087;28;20030;-67
2021/11/10 09:06:41;;;;;;;0.88;0.10;;;;;;;;;;5035092;28;20483;-67
2021/11/10 09:09:06;;;;;;;1.92;0.30;;;;;;;;;;5034692;28;20032;-66
2021/11/10 09:11:31;;;;;;;1.70;0.20;;;;;;;;;;5034945;28;20032;-65
2021/11/10 09:13:56;;;;;;;0.50;0.10;;;;;;;;;;5034755;28;20021;-66
2021/11/10 09:16:22;;;;;;;0.52;0.00;;;;;;;;;;5038993;28;20269;-67
2021/11/10 09:18:47;;;;;;;1.10;0.20;;;;;;;;;;5019550;28;20088;-66
2021/11/10 09:21:12;;;;;;;0.70;0.22;;;;;;;;;;5016291;28;20630;-66
2021/11/10 09:23:39;;;;;;;2.63;0.17;;;;;;;;;;5034937;28;20384;-66
2021/11/10 09:26:04;;;;;;;0.40;0.20;;;;;;;;;;5045370;28;20016;-65
2021/11/10 09:28:30;;;;;;;1.42;0.20;;;;;;;;;;5054406;28;20033;-67
2021/11/10 09:30:56;;;;;;;2.40;0.20;;;;;;;;;;5047963;28;20021;-67
2021/11/10 09:33:23;;;;;;;0.52;0.10;;;;;;;;;;5030117;28;20018;-66
2021/11/10 09:35:49;;;;;;;0.32;0.15;;;;;;;;;;5033975;28;20523;-67
2021/11/10 09:38:14;;;;;;;0.47;0.20;;;;;;;;;;5034003;28;20056;-66
2021/11/10 09:40:40;;;;;;;0.17;0.08;;;;;;;;;;5031839;28;20468;-63
2021/11/10 09:43:06;;;;;;;4.35;0.98;;;;;;;;;;5033089;28;20044;-63
2021/11/10 09:45:34;;;;;;;0.93;0.10;;;;;;;;;;5033417;28;20038;-68
2021/11/10 09:48:04;;;;;;;0.20;0.00;;;;;;;;;;5032136;28;20041;-67
2021/11/10 09:50:31;;;;;;;0.85;0.10;;;;;;;;;;5032435;28;20017;-66
2021/11/10 09:52:57;;;;;;;1.33;0.20;;;;;;;;;;5033378;28;20060;-67
2021/11/10 09:55:24;;;;;;;0.95;0.10;;;;;;;;;;5033478;28;20480;-67
2021/11/10 09:57:50;;;;;;;0.32;0.00;;;;;;;;;;5036199;28;20802;-67
2021/11/10 10:00:21;;;;;;;0.10;0.10;;;;;;;;;;5036557;28;20017;-67
2021/11/10 10:02:48;;;;;;;2.13;0.43;;;;;;;;;;5032794;28;20061;-67
2021/11/10 10:05:16;;;;;;;0.45;0.00;;;;;;;;;;5033822;28;20080;-66
2021/11/10 10:07:43;;;;;;;0.55;0.15;;;;;;;;;;5038168;28;20032;-67
2021/11/10 10:10:08;;;;;;;1.20;0.30;;;;;;;;;;5035066;28;20017;-67
2021/11/10 10:12:33;;;;;;;0.77;0.15;;;;;;;;;;5047431;28;20457;-67
2021/11/10 10:14:58;;;;;;;0.80;0.05;;;;;;;;;;5041126;28;20032;-67
2021/11/10 10:17:37;;;;;;;0.73;0.20;;;;;;;;;;5034130;28;20072;-67
2021/11/10 10:20:04;;;;;;;2.00;0.30;;;;;;;;;;5033853;28;20291;-66
2021/11/10 10:22:30;;;;;;;0.45;0.10;;;;;;;;;;5033369;28;20495;-67
2021/11/10 10:24:56;;;;;;;2.35;0.15;;;;;;;;;;5034002;28;20029;-67
2021/11/10 10:27:33;;;;;;;1.27;0.20;;;;;;;;;;5042909;28;20024;-67
2021/11/10 10:30:17;;;;;;;1.08;0.25;;;;;;;;;;5043487;28;20044;-66
2021/11/10 10:32:42;;;;;;;1.05;0.20;;;;;;;;;;5033061;28;20017;-67
2021/11/10 10:35:26;;;;;;;1.08;0.20;;;;;;;;;;5033701;28;20021;-67
2021/11/10 10:37:51;;;;;;;1.73;0.20;;;;;;;;;;5033502;28;20013;-67
2021/11/10 10:40:19;;;;;;;0.57;0.20;;;;;;;;;;5033365;28;20602;-67
2021/11/10 10:42:44;;;;;;;1.65;0.10;;;;;;;;;;5032515;28;20266;-67
2021/11/10 10:45:30;;;;;;;1.80;0.40;;;;;;;;;;5032526;28;20035;-67
2021/11/10 10:47:59;;;;;;;2.00;0.35;;;;;;;;;;5032805;28;20025;-67
2021/11/10 10:50:58;;;;;;;0.98;0.00;;;;;;;;;;5043406;28;20017;-67
2021/11/10 10:53:32;;;;;;;2.65;0.17;;;;;;;;;;4948852;29;20498;-66
2021/11/10 10:55:58;;;;;;;1.40;0.10;;;;;;;;;;4951061;29;20163;-67
2021/11/10 10:58:36;;;;;;;1.73;0.10;;;;;;;;;;4923349;29;20454;-68
2021/11/10 11:01:17;;;;;;;1.05;0.20;;;;;;;;;;4952567;29;20051;-68
2021/11/10 11:03:47;;;;;;;0.90;0.28;;;;;;;;;;4952959;29;20039;-68
2021/11/10 11:06:21;;;;;;;1.15;0.45;;;;;;;;;;4953036;29;20027;-67
2021/11/10 11:08:47;;;;;;;1.15;0.10;;;;;;;;;;4952797;29;20114;-66
2021/11/10 11:11:27;;;;;;;0.85;0.10;;;;;;;;;;4953185;29;20103;-68
2021/11/10 11:13:53;;;;;;;1.23;0.28;;;;;;;;;;4953189;29;20027;-68
2021/11/10 11:16:21;;;;;;;0.38;0.20;;;;;;;;;;4953057;29;20031;-68
2021/11/10 11:18:47;;;;;;;0.60;0.20;;;;;;;;;;4952970;29;20035;-68
2021/11/10 11:21:38;;;;;;;0.22;0.00;;;;;;;;;;4952887;29;20070;-67
2021/11/10 11:24:03;;;;;;;1.77;0.10;;;;;;;;;;4950691;29;20043;-67
2021/11/10 11:26:31;;;;;;;3.58;0.68;;;;;;;;;;4952854;29;20035;-68
2021/11/10 11:29:17;;;;;;;1.15;0.57;;;;;;;;;;4971415;28;20080;-68
2021/11/10 11:31:42;;;;;;;2.03;0.20;;;;;;;;;;5013166;28;20564;-68
2021/11/10 11:34:08;;;;;;;0.90;0.10;;;;;;;;;;5013292;28;20109;-68
2021/11/10 11:37:06;;;;;;;0.63;0.10;;;;;;;;;;5013465;28;20103;-67
2021/11/10 11:39:33;;;;;;;0.60;0.40;;;;;;;;;;5007007;28;20026;-67
2021/11/10 11:41:59;;;;;;;0.47;0.10;;;;;;;;;;5010992;28;20041;-67
2021/11/10 11:44:24;;;;;;;1.80;0.15;;;;;;;;;;5011255;28;20063;-68
2021/11/10 11:46:51;;;;;;;0.73;0.13;;;;;;;;;;5010988;28;20431;-68
2021/11/10 11:49:17;;;;;;;0.60;0.15;;;;;;;;;;5011420;28;20026;-67
2021/11/10 11:51:43;;;;;;;3.20;0.20;;;;;;;;;;5006568;28;20014;-67
2021/11/10 11:54:09;;;;;;;1.67;0.13;;;;;;;;;;4991212;28;20026;-69
2021/11/10 11:56:34;;;;;;;2.38;0.22;;;;;;;;;;5010758;28;20037;-68
2021/11/10 11:59:01;;;;;;;1.20;0.20;;;;;;;;;;4998955;28;20190;-67
2021/11/10 12:01:27;;;;;;;0.30;0.10;;;;;;;;;;5006623;28;20038;-67
2021/11/10 12:03:58;;;;;;;0.65;0.10;;;;;;;;;;4994775;28;20033;-67
2021/11/10 12:06:25;;;;;;;1.20;0.28;;;;;;;;;;5009914;28;20018;-68
2021/11/10 12:08:54;;;;;;;0.10;0.00;;;;;;;;;;5001366;28;20072;-67
2021/11/10 12:11:19;;;;;;;0.93;0.20;;;;;;;;;;5007522;28;20020;-67
2021/11/10 12:14:04;;;;;;;1.17;0.10;;;;;;;;;;5014040;28;20021;-68
2021/11/10 12:16:29;;;;;;;1.17;0.30;;;;;;;;;;5014990;28;20033;-68
2021/11/10 12:18:57;;;;;;;3.30;0.20;;;;;;;;;;5015433;28;20022;-68
2021/11/10 12:21:30;;;;;;;1.35;0.20;;;;;;;;;;5031588;28;20254;-68
2021/11/10 12:23:55;;;;;;;0.45;0.10;;;;;;;;;;5031468;28;20051;-67
2021/11/10 12:26:25;;;;;;;1.92;0.13;;;;;;;;;;5035621;28;20052;-67
2021/11/10 12:28:56;;;;;;;0.57;0.22;;;;;;;;;;5036265;28;20071;-67
2021/11/10 12:31:35;;;;;;;1.33;0.22;;;;;;;;;;5036167;28;20025;-68
2021/11/10 12:34:02;;;;;;;0.85;0.20;;;;;;;;;;5035964;28;20376;-67
2021/11/10 12:36:47;;;;;;;0.63;0.10;;;;;;;;;;5035645;28;20039;-68
2021/11/10 12:39:12;;;;;;;1.70;0.28;;;;;;;;;;5034848;28;20109;-67
2021/11/10 12:41:50;;;;;;;0.50;0.32;;;;;;;;;;5034806;28;20064;-67
2021/11/10 12:44:26;;;;;;;0.88;0.10;;;;;;;;;;5035671;28;20520;-68
2021/11/10 12:46:53;;;;;;;0.93;0.10;;;;;;;;;;5035670;28;20068;-68
2021/11/10 12:49:21;;;;;;;0.28;0.10;;;;;;;;;;5034591;28;20013;-68
2021/11/10 12:52:06;;;;;;;1.10;0.10;;;;;;;;;;5035639;28;20035;-67
2021/11/10 12:54:31;;;;;;;0.90;0.28;;;;;;;;;;5035558;28;20071;-67
2021/11/10 12:56:58;;;;;;;0.98;0.10;;;;;;;;;;5035634;28;20017;-68
2021/11/10 12:59:24;;;;;;;1.20;0.13;;;;;;;;;;5035706;28;20469;-68
2021/11/10 13:01:54;;;;;;;3.33;0.50;;;;;;;;;;5034881;28;20048;-67
2021/11/10 13:04:21;;;;;;;0.90;0.10;;;;;;;;;;5035165;28;20017;-67
2021/11/10 13:06:50;;;;;;;1.38;0.20;;;;;;;;;;5034148;28;20368;-67
2021/11/10 13:09:27;;;;;;;1.38;0.30;;;;;;;;;;5035500;28;20105;-68
2021/11/10 13:11:54;;;;;;;0.77;0.10;;;;;;;;;;5034803;28;20052;-68
2021/11/10 13:14:20;;;;;;;1.52;0.10;;;;;;;;;;5019724;28;20029;-68
2021/11/10 13:16:59;;;;;;;0.73;0.10;;;;;;;;;;5034847;28;20021;-67
2021/11/10 13:19:38;;;;;;;1.42;0.40;;;;;;;;;;5015448;28;20053;-67
2021/11/10 13:22:05;;;;;;;2.17;0.43;;;;;;;;;;5017249;28;20026;-68
2021/11/10 13:24:30;;;;;;;2.13;0.10;;;;;;;;;;5033987;28;20108;-68
2021/11/10 13:26:55;;;;;;;1.65;0.20;;;;;;;;;;5034602;28;20104;-68
2021/11/10 13:29:22;;;;;;;0.73;0.10;;;;;;;;;;5035134;28;20030;-66
2021/11/10 13:31:48;;;;;;;1.40;0.20;;;;;;;;;;5033493;28;20522;-67
2021/11/10 13:34:14;;;;;;;0.32;0.10;;;;;;;;;;5035006;28;20033;-69
2021/11/10 13:36:39;;;;;;;2.63;0.20;;;;;;;;;;5034655;28;20017;-71
2021/11/10 13:39:10;;;;;;;3.28;0.47;;;;;;;;;;5045965;28;20265;-69
2021/11/10 13:41:42;;;;;;;3.05;0.88;;;;;;;;;;5038943;28;20017;-72
2021/11/10 13:44:08;;;;;;;1.45;0.50;;;;;;;;;;5034380;28;20055;-67
2021/11/10 13:46:37;;;;;;;2.85;0.40;;;;;;;;;;5033635;28;20049;-68
2021/11/10 13:49:04;;;;;;;3.47;0.50;;;;;;;;;;5031152;28;20029;-66
2021/11/10 13:51:29;;;;;;;3.13;0.40;;;;;;;;;;5033101;28;20032;-63
2021/11/10 13:54:05;;;;;;;1.50;0.40;;;;;;;;;;5032261;28;20021;-67
2021/11/10 13:56:41;;;;;;;1.13;0.45;;;;;;;;;;5029036;28;20032;-64
2021/11/10 13:59:20;;;;;;;1.70;0.47;;;;;;;;;;5030640;28;20122;-66
2021/11/10 14:01:46;;;;;;;1.77;0.20;;;;;;;;;;5031640;28;20045;-67
2021/11/10 14:04:14;;;;;;;2.20;0.20;;;;;;;;;;5031168;28;20108;-66
2021/11/10 14:06:59;;;;;;;2.83;0.63;;;;;;;;;;5031820;28;20017;-69
2021/11/10 14:09:26;;;;;;;2.08;0.22;;;;;;;;;;5028064;28;20033;-65
2021/11/10 14:11:51;;;;;;;3.47;1.00;;;;;;;;;;5030539;28;20059;-70
2021/11/10 14:14:32;;;;;;;2.05;0.15;;;;;;;;;;5033406;28;20033;-68
2021/11/10 14:16:57;;;;;;;2.13;0.35;;;;;;;;;;5031430;28;20137;-66
2021/11/10 14:19:24;;;;;;;2.88;0.20;;;;;;;;;;5029900;28;20028;-66
2021/11/10 14:22:09;;;;;;;2.60;0.20;;;;;;;;;;5032174;28;20028;-67
2021/11/10 14:24:36;;;;;;;0.90;0.22;;;;;;;;;;5031496;28;20033;-68
2021/11/10 14:27:05;;;;;;;0.50;0.30;;;;;;;;;;5033253;28;20025;-69
2021/11/10 14:29:31;;;;;;;1.70;0.20;;;;;;;;;;5033967;28;20028;-69
2021/11/10 14:31:57;;;;;;;1.95;0.40;;;;;;;;;;5032921;28;20053;-68
2021/11/10 14:34:27;;;;;;;1.20;0.20;;;;;;;;;;5031829;28;20103;-68
2021/11/10 14:36:52;;;;;;;2.58;0.45;;;;;;;;;;5033471;28;20479;-68
2021/11/10 14:39:25;;;;;;;0.88;0.10;;;;;;;;;;5033655;28;20041;-68
2021/11/10 14:41:53;;;;;;;3.33;0.32;;;;;;;;;;5033137;28;20025;-69